Time;durP1;ratioP1;P1;durP2;ratioP2;P2;SDS_P1;SDS_P2;PMS_P1;PMS_P2;Temp;Humidity;BMP_temperature;BMP_pressure;BME280_temperature;BME280_humidity;BME280_pressure;Samples;Min_cycle;Max_cycle;Signal;HPM_P1;HPM_P2
2022/01/24 00:00:07;;;;;;;7.32;4.65;;;4.60;99.90;;;;;;5072308;28;20052;-48
2022/01/24 00:02:33;;;;;;;6.95;5.13;;;4.60;99.90;;;;;;5090468;28;20195;-51
2022/01/24 00:04:59;;;;;;;11.88;5.68;;;4.40;99.90;;;;;;5089694;28;20134;-47
2022/01/24 00:07:25;;;;;;;7.60;5.00;;;4.60;99.90;;;;;;5089788;28;20047;-48
2022/01/24 00:09:54;;;;;;;9.52;5.72;;;4.60;99.90;;;;;;5090102;28;20048;-48
2022/01/24 00:12:29;;;;;;;12.73;7.10;;;4.70;99.90;;;;;;5090599;28;20043;-49
2022/01/24 00:15:05;;;;;;;13.95;8.00;;;4.50;99.90;;;;;;5087460;28;20044;-42
2022/01/24 00:17:37;;;;;;;12.82;7.97;;;4.60;99.90;;;;;;5088611;28;20042;-51
2022/01/24 00:28:22;;;;;;;11.35;7.70;;;4.60;99.90;;;;;;5090496;28;20082;-50
2022/01/24 00:30:49;;;;;;;10.75;7.03;;;4.50;99.90;;;;;;5090327;28;20044;-46
2022/01/24 00:33:15;;;;;;;13.93;8.48;;;4.50;99.90;;;;;;5089935;28;20040;-41
2022/01/24 00:35:41;;;;;;;12.45;7.63;;;4.90;99.90;;;;;;5090388;28;20111;-44
2022/01/24 00:38:07;;;;;;;12.07;7.65;;;5.60;99.90;;;;;;5071731;28;20063;-44
2022/01/24 00:40:38;;;;;;;15.05;9.18;;;4.50;99.90;;;;;;5090460;28;20048;-45
2022/01/24 00:43:10;;;;;;;18.10;10.32;;;4.50;99.90;;;;;;5089863;28;20044;-44
2022/01/24 00:56:09;;;;;;;20.20;12.02;;;4.50;99.90;;;;;;5090154;28;20101;-47
2022/01/24 00:58:35;;;;;;;15.48;10.25;;;4.50;99.90;;;;;;5090372;28;20079;-47
2022/01/24 01:01:01;;;;;;;17.85;11.20;;;5.30;99.90;;;;;;5089872;28;20078;-44
2022/01/24 01:03:26;;;;;;;18.52;12.13;;;4.50;99.90;;;;;;5089220;28;20043;-45
2022/01/24 01:18:58;;;;;;;17.15;10.68;;;5.50;99.90;;;;;;5089954;28;20452;-50
2022/01/24 01:21:25;;;;;;;22.13;12.38;;;4.40;99.90;;;;;;5089806;28;20115;-46
2022/01/24 01:23:55;;;;;;;19.13;11.57;;;4.40;99.90;;;;;;5089653;28;20044;-46
2022/01/24 01:28:55;;;;;;;18.38;11.80;;;4.40;99.90;;;;;;5089374;28;20401;-61
2022/01/24 01:32:11;;;;;;;21.35;11.88;;;4.40;99.90;;;;;;5071882;28;20063;-61
2022/01/24 01:53:55;;;;;;;24.55;14.40;;;4.40;99.90;;;;;;5090079;28;20047;-61
2022/01/24 01:56:10;;;;;;;20.23;12.73;;;5.40;99.90;;;;;;5087903;28;20065;-61
2022/01/24 01:58:36;;;;;;;26.55;14.52;;;5.50;99.90;;;;;;5071464;28;20122;-61
2022/01/24 02:01:03;;;;;;;21.30;14.30;;;4.30;99.90;;;;;;5089796;28;20043;-60
2022/01/24 02:03:30;;;;;;;23.50;14.40;;;4.40;99.90;;;;;;5089921;28;20129;-61
2022/01/24 02:05:56;;;;;;;31.20;15.50;;;4.40;99.90;;;;;;5089859;28;20093;-61
2022/01/24 02:08:23;;;;;;;24.45;14.38;;;4.40;99.90;;;;;;5089886;28;20036;-61
2022/01/24 02:10:49;;;;;;;24.85;14.48;;;4.20;99.90;;;;;;5090137;28;20132;-61
2022/01/24 02:13:15;;;;;;;24.00;13.95;;;4.30;99.90;;;;;;5089259;28;20070;-61
2022/01/24 02:15:52;;;;;;;20.40;13.75;;;4.30;99.90;;;;;;5092293;28;20055;-62
2022/01/24 02:21:09;;;;;;;21.13;12.57;;;4.30;99.90;;;;;;5093242;28;20398;-62
2022/01/24 02:23:46;;;;;;;21.38;12.75;;;4.20;99.90;;;;;;5093146;28;20068;-62
2022/01/24 02:26:19;;;;;;;20.38;13.35;;;4.20;99.90;;;;;;5093135;28;20047;-62
2022/01/24 02:31:40;;;;;;;22.33;13.10;;;4.30;99.90;;;;;;5092878;28;20120;-62
2022/01/24 02:34:26;;;;;;;22.25;13.55;;;4.30;99.90;;;;;;5092998;28;20054;-62
2022/01/24 02:36:53;;;;;;;22.27;13.55;;;4.30;99.90;;;;;;5093213;28;20036;-61
2022/01/24 02:50:04;;;;;;;20.90;12.25;;;4.30;99.90;;;;;;5092121;28;20537;-62
2022/01/24 02:52:30;;;;;;;19.80;13.05;;;4.30;99.90;;;;;;5092347;28;20550;-62
2022/01/24 02:54:55;;;;;;;23.75;13.40;;;4.30;99.90;;;;;;5092661;28;20071;-62
2022/01/24 02:57:21;;;;;;;23.00;14.05;;;4.30;99.90;;;;;;5092418;28;20063;-62
2022/01/24 02:59:47;;;;;;;18.58;12.63;;;4.30;99.90;;;;;;5092710;28;20072;-62
2022/01/24 03:02:13;;;;;;;20.27;12.73;;;4.30;99.90;;;;;;5092352;28;20066;-62
2022/01/24 03:04:39;;;;;;;19.13;12.30;;;4.30;99.90;;;;;;5092612;28;20056;-62
2022/01/24 03:07:05;;;;;;;18.67;12.07;;;4.20;99.90;;;;;;5092210;28;20047;-62
2022/01/24 03:09:32;;;;;;;18.20;11.90;;;4.20;99.90;;;;;;5092519;28;20059;-62
2022/01/24 03:14:27;;;;;;;19.25;12.05;;;4.20;99.90;;;;;;5092054;28;20456;-62
2022/01/24 03:16:52;;;;;;;21.23;12.80;;;4.30;99.90;;;;;;5092458;28;20036;-62
2022/01/24 03:19:18;;;;;;;21.50;13.52;;;4.20;99.90;;;;;;5092346;28;20050;-62
2022/01/24 03:21:44;;;;;;;19.88;12.82;;;4.20;99.90;;;;;;5092412;28;20048;-62
2022/01/24 03:24:10;;;;;;;23.85;15.15;;;4.20;99.90;;;;;;5092166;28;20119;-62
2022/01/24 03:26:36;;;;;;;21.20;13.70;;;4.20;99.90;;;;;;5091383;28;20032;-62
2022/01/24 03:29:03;;;;;;;23.00;12.98;;;4.20;99.90;;;;;;5091575;28;20047;-62
2022/01/24 03:31:28;;;;;;;22.25;13.77;;;4.10;99.90;;;;;;5091559;28;20143;-62
2022/01/24 03:33:54;;;;;;;22.27;14.13;;;5.70;99.90;;;;;;5091733;28;20652;-61
2022/01/24 03:36:20;;;;;;;22.95;14.00;;;4.20;99.90;;;;;;5091579;28;20091;-62
2022/01/24 03:38:46;;;;;;;24.95;15.43;;;4.20;99.90;;;;;;5090665;28;20048;-62
2022/01/24 03:41:12;;;;;;;28.15;15.23;;;4.20;99.90;;;;;;5091337;28;20075;-62
2022/01/24 03:43:37;;;;;;;25.98;15.95;;;4.10;99.90;;;;;;5091237;28;20082;-61
2022/01/24 03:48:48;;;;;;;23.95;15.93;;;4.20;99.90;;;;;;5091391;28;20047;-61
2022/01/24 03:51:15;;;;;;;24.88;15.18;;;4.10;99.90;;;;;;5091292;28;20068;-61
2022/01/24 03:53:43;;;;;;;24.42;16.10;;;4.20;99.90;;;;;;5091673;28;20393;-61
2022/01/24 03:56:09;;;;;;;23.02;15.60;;;4.10;99.90;;;;;;5091322;28;20044;-61
2022/01/24 03:58:35;;;;;;;25.55;16.85;;;4.10;99.90;;;;;;5091384;28;20102;-61
2022/01/24 04:01:05;;;;;;;26.55;16.65;;;4.40;99.90;;;;;;5091490;28;20032;-61
2022/01/24 04:03:31;;;;;;;24.08;16.17;;;3.80;99.90;;;;;;5090947;28;20043;-61
2022/01/24 04:05:57;;;;;;;29.45;17.77;;;4.10;99.90;;;;;;5091355;28;20040;-61
2022/01/24 04:08:22;;;;;;;27.10;16.63;;;4.20;99.90;;;;;;5091075;28;20066;-61
2022/01/24 04:10:52;;;;;;;26.35;18.10;;;4.20;99.90;;;;;;5091206;28;20440;-61
2022/01/24 04:21:20;;;;;;;26.70;16.95;;;5.50;99.90;;;;;;5091197;28;20050;-61
2022/01/24 04:23:52;;;;;;;26.98;16.80;;;4.10;99.90;;;;;;5091231;28;20051;-61
2022/01/24 04:26:18;;;;;;;27.55;17.50;;;4.10;99.90;;;;;;5072682;28;20039;-61
2022/01/24 04:28:44;;;;;;;27.58;18.13;;;4.10;99.90;;;;;;5091427;28;20051;-61
2022/01/24 04:31:10;;;;;;;24.33;16.52;;;4.00;99.90;;;;;;5091466;28;20036;-60
2022/01/24 04:33:36;;;;;;;25.52;16.38;;;4.10;99.90;;;;;;5072827;28;20659;-60
2022/01/24 04:36:02;;;;;;;27.52;17.40;;;4.10;99.90;;;;;;5090971;28;20044;-61
2022/01/24 04:38:27;;;;;;;30.67;17.73;;;4.10;99.90;;;;;;5090018;28;20044;-61
2022/01/24 04:40:58;;;;;;;29.02;19.23;;;4.10;99.90;;;;;;5090557;28;20060;-61
2022/01/24 04:51:30;;;;;;;30.23;17.38;;;4.10;99.90;;;;;;5090242;28;20097;-61
2022/01/24 04:56:38;;;;;;;30.40;18.80;;;3.90;99.90;;;;;;5090424;28;20093;-60
2022/01/24 04:59:05;;;;;;;29.25;17.90;;;4.00;99.90;;;;;;5090390;28;20044;-61
2022/01/24 05:01:31;;;;;;;30.27;18.90;;;3.80;99.90;;;;;;5071548;28;20497;-61
2022/01/24 05:03:57;;;;;;;29.77;19.67;;;4.80;99.90;;;;;;5072135;28;20048;-61
2022/01/24 05:06:23;;;;;;;26.73;17.20;;;4.00;99.90;;;;;;5071697;28;20044;-61
2022/01/24 05:08:49;;;;;;;26.23;17.05;;;4.00;99.90;;;;;;5090136;28;20047;-61
2022/01/24 05:11:19;;;;;;;27.83;17.95;;;4.10;99.90;;;;;;5071978;28;20043;-61
2022/01/24 05:24:35;;;;;;;28.17;18.00;;;4.00;99.90;;;;;;5090142;28;20052;-61
2022/01/24 05:27:01;;;;;;;25.27;16.45;;;4.00;99.90;;;;;;5089856;28;20075;-60
2022/01/24 05:29:27;;;;;;;28.60;16.55;;;4.00;99.90;;;;;;5089891;28;20071;-60
2022/01/24 05:31:55;;;;;;;27.13;16.95;;;4.50;99.90;;;;;;5090648;28;20044;-60
2022/01/24 05:34:21;;;;;;;27.80;17.17;;;4.00;99.90;;;;;;5090446;28;20068;-61
2022/01/24 05:36:46;;;;;;;29.45;16.63;;;4.00;99.90;;;;;;5089713;28;20106;-61
2022/01/24 05:39:12;;;;;;;24.80;16.33;;;4.00;99.90;;;;;;5089626;28;20032;-61
2022/01/24 05:41:38;;;;;;;27.42;15.63;;;3.90;99.90;;;;;;5090002;28;20470;-60
2022/01/24 05:44:06;;;;;;;28.27;16.38;;;4.00;99.90;;;;;;5090309;28;20040;-61
2022/01/24 05:46:32;;;;;;;28.83;16.73;;;4.00;99.90;;;;;;5090158;28;20129;-60
2022/01/24 05:48:57;;;;;;;26.48;17.10;;;4.00;99.90;;;;;;5090517;28;20056;-61
2022/01/24 05:51:24;;;;;;;27.85;16.15;;;4.00;99.90;;;;;;5094003;28;20072;-61
2022/01/24 05:53:50;;;;;;;23.98;16.00;;;4.00;99.90;;;;;;5075557;28;20569;-61
2022/01/24 05:56:16;;;;;;;25.25;16.00;;;4.00;99.90;;;;;;5093351;28;20079;-61
2022/01/24 05:58:42;;;;;;;28.00;17.30;;;4.70;99.90;;;;;;5093674;28;20080;-61
2022/01/24 06:01:07;;;;;;;28.80;16.23;;;4.00;99.90;;;;;;5093339;28;20048;-61
2022/01/24 06:03:33;;;;;;;21.42;15.27;;;4.00;99.90;;;;;;5093497;28;20040;-60
2022/01/24 06:05:59;;;;;;;23.73;15.38;;;4.00;99.90;;;;;;5093708;28;20040;-61
2022/01/24 06:08:24;;;;;;;24.75;15.93;;;4.10;99.90;;;;;;5093602;28;20482;-60
2022/01/24 06:10:50;;;;;;;28.00;17.05;;;5.10;99.90;;;;;;5093081;28;20028;-60
2022/01/24 06:13:16;;;;;;;28.60;17.50;;;4.00;99.90;;;;;;5058273;28;20040;-61
2022/01/24 06:15:43;;;;;;;24.48;15.93;;;4.00;99.90;;;;;;5093008;28;20032;-61
2022/01/24 06:18:09;;;;;;;30.17;17.50;;;4.00;99.90;;;;;;5075145;28;20071;-61
2022/01/24 06:20:34;;;;;;;29.60;16.63;;;4.00;99.90;;;;;;5093197;28;20044;-60
2022/01/24 06:23:00;;;;;;;27.65;16.42;;;4.90;99.90;;;;;;5093003;28;20109;-61
2022/01/24 06:25:28;;;;;;;25.65;15.23;;;4.00;99.90;;;;;;5092976;28;20073;-60
2022/01/24 06:27:53;;;;;;;27.02;17.08;;;4.00;99.90;;;;;;5093002;28;20100;-61
2022/01/24 06:30:19;;;;;;;25.02;16.48;;;4.00;99.90;;;;;;5093042;28;20393;-61
2022/01/24 06:32:46;;;;;;;30.08;17.13;;;3.90;99.90;;;;;;5092579;28;20489;-61
2022/01/24 06:35:12;;;;;;;27.15;15.95;;;3.90;99.90;;;;;;5093274;28;20040;-60
2022/01/24 06:37:38;;;;;;;30.02;18.13;;;3.90;99.90;;;;;;5092648;28;20147;-61
2022/01/24 06:40:06;;;;;;;28.00;18.10;;;4.00;99.90;;;;;;5092994;28;20715;-61
2022/01/24 06:42:32;;;;;;;26.17;17.13;;;4.00;99.90;;;;;;5092915;28;20115;-61
2022/01/24 06:44:57;;;;;;;24.10;15.23;;;3.90;99.90;;;;;;5092742;28;20886;-61
2022/01/24 06:47:24;;;;;;;24.10;15.15;;;4.00;99.90;;;;;;5093000;28;20044;-61
2022/01/24 06:49:50;;;;;;;25.65;16.50;;;3.90;99.90;;;;;;5092967;28;20047;-61
2022/01/24 06:52:17;;;;;;;25.92;16.98;;;3.90;99.90;;;;;;5093252;28;20044;-60
2022/01/24 06:54:44;;;;;;;26.90;16.02;;;3.90;99.90;;;;;;5093001;28;20036;-61
2022/01/24 06:57:12;;;;;;;25.73;15.82;;;3.70;99.90;;;;;;5092547;28;20063;-61
2022/01/24 06:59:38;;;;;;;26.38;16.40;;;4.00;99.90;;;;;;5092352;28;20050;-61
2022/01/24 07:02:05;;;;;;;22.08;15.82;;;3.90;99.90;;;;;;5091391;28;20043;-61
2022/01/24 07:04:31;;;;;;;26.75;15.68;;;3.90;99.90;;;;;;5092941;28;20052;-60
2022/01/24 07:06:56;;;;;;;24.50;15.57;;;3.90;99.90;;;;;;5074173;28;20048;-61
2022/01/24 07:09:22;;;;;;;26.48;15.32;;;3.90;99.90;;;;;;5092835;28;20389;-61
2022/01/24 07:11:50;;;;;;;21.65;14.80;;;4.00;99.90;;;;;;5092102;28;20032;-61
2022/01/24 07:14:15;;;;;;;23.77;15.20;;;3.90;99.90;;;;;;5092704;28;20793;-61
2022/01/24 07:19:16;;;;;;;26.15;15.15;;;3.90;99.90;;;;;;5092626;28;20044;-60
2022/01/24 07:21:41;;;;;;;23.83;15.13;;;4.00;99.90;;;;;;5091604;28;20062;-61
2022/01/24 07:24:07;;;;;;;22.75;14.23;;;3.90;99.90;;;;;;5091961;28;20048;-61
2022/01/24 07:26:33;;;;;;;27.98;16.85;;;3.90;99.90;;;;;;5073646;28;20075;-61
2022/01/24 07:28:58;;;;;;;32.85;19.40;;;3.90;99.90;;;;;;5091539;28;20048;-60
2022/01/24 07:31:24;;;;;;;30.60;19.20;;;4.00;99.90;;;;;;5091744;28;20040;-61
2022/01/24 07:33:51;;;;;;;33.67;20.52;;;4.00;99.90;;;;;;5091806;28;20039;-61
2022/01/24 07:36:17;;;;;;;34.50;21.27;;;4.00;99.90;;;;;;5091663;28;20047;-62
2022/01/24 07:38:43;;;;;;;32.80;20.17;;;3.90;99.90;;;;;;5091178;28;20036;-61
2022/01/24 07:41:08;;;;;;;31.95;17.77;;;4.00;99.90;;;;;;5091533;28;20044;-62
2022/01/24 07:43:34;;;;;;;29.38;18.80;;;4.00;99.90;;;;;;5072769;28;20097;-61
2022/01/24 07:46:00;;;;;;;26.05;18.70;;;4.00;99.90;;;;;;5091207;28;20516;-61
2022/01/24 07:48:26;;;;;;;35.90;20.45;;;4.00;99.90;;;;;;5073002;28;20040;-62
2022/01/24 07:50:52;;;;;;;34.17;19.85;;;4.00;99.90;;;;;;5091152;28;20047;-62
2022/01/24 07:53:20;;;;;;;37.42;20.95;;;4.00;99.90;;;;;;5091349;28;20044;-61
2022/01/24 07:55:46;;;;;;;40.40;24.20;;;4.00;99.90;;;;;;5091055;28;20071;-61
2022/01/24 07:58:11;;;;;;;38.20;23.23;;;4.00;99.90;;;;;;5091156;28;20039;-61
2022/01/24 08:00:38;;;;;;;44.70;24.83;;;4.00;99.90;;;;;;5091220;28;20465;-61
2022/01/24 08:03:05;;;;;;;44.80;25.02;;;4.00;99.90;;;;;;5091206;28;20040;-61
2022/01/24 08:05:31;;;;;;;43.83;25.83;;;4.00;99.90;;;;;;5091257;28;20040;-61
2022/01/24 08:07:57;;;;;;;48.40;27.85;;;4.50;99.90;;;;;;5091030;28;20051;-61
2022/01/24 08:10:23;;;;;;;47.85;27.45;;;4.10;99.90;;;;;;5091110;28;20496;-61
2022/01/24 08:12:48;;;;;;;50.08;27.20;;;4.10;99.90;;;;;;5090285;28;20076;-61
2022/01/24 08:15:15;;;;;;;51.78;30.08;;;4.10;99.90;;;;;;5091122;28;20583;-61
2022/01/24 08:17:42;;;;;;;58.80;30.98;;;4.10;99.90;;;;;;5090819;28;20147;-62
2022/01/24 08:20:09;;;;;;;61.63;30.10;;;4.10;99.90;;;;;;5090846;28;20036;-62
2022/01/24 08:22:35;;;;;;;58.78;31.77;;;4.20;99.90;;;;;;5091013;28;20406;-61
2022/01/24 08:25:04;;;;;;;61.20;33.33;;;4.10;99.90;;;;;;5090908;28;20048;-62
2022/01/24 08:27:34;;;;;;;64.50;33.35;;;4.20;99.90;;;;;;5090539;28;20104;-61
2022/01/24 08:30:02;;;;;;;62.38;33.53;;;4.20;99.90;;;;;;5090639;28;20382;-62
2022/01/24 08:32:28;;;;;;;64.50;33.67;;;5.30;99.90;;;;;;5090334;28;20040;-61
2022/01/24 08:34:56;;;;;;;64.28;34.72;;;4.20;99.90;;;;;;5090228;28;20055;-61
2022/01/24 08:37:22;;;;;;;62.45;34.38;;;4.30;99.90;;;;;;5090380;28;20047;-61
2022/01/24 08:39:48;;;;;;;64.85;35.20;;;4.20;99.90;;;;;;5090452;28;20040;-61
2022/01/24 08:42:24;;;;;;;65.10;36.28;;;4.30;99.90;;;;;;5090417;28;20494;-61
2022/01/24 08:47:29;;;;;;;65.05;34.30;;;4.30;99.90;;;;;;5090182;28;20044;-61
2022/01/24 08:49:57;;;;;;;73.95;36.20;;;4.30;99.90;;;;;;5090158;28;20032;-61
2022/01/24 08:52:23;;;;;;;73.47;37.35;;;4.30;99.90;;;;;;5090209;28;20132;-61
2022/01/24 08:54:49;;;;;;;73.80;39.22;;;4.40;99.90;;;;;;5089893;28;20093;-61
2022/01/24 08:57:15;;;;;;;71.55;37.38;;;4.10;99.90;;;;;;5089304;28;20036;-61
2022/01/24 08:59:41;;;;;;;76.50;38.88;;;5.30;99.90;;;;;;5071896;28;20043;-61
2022/01/24 09:02:08;;;;;;;73.57;38.30;;;4.40;99.90;;;;;;5089716;28;20485;-61
2022/01/24 09:04:34;;;;;;;74.22;40.28;;;5.70;99.90;;;;;;5090377;28;20055;-61
2022/01/24 09:07:05;;;;;;;74.85;39.78;;;4.50;99.90;;;;;;5089626;28;20055;-61
2022/01/24 09:09:34;;;;;;;79.35;42.33;;;4.50;99.90;;;;;;5090176;28;20040;-61
2022/01/24 09:12:00;;;;;;;79.60;42.13;;;4.50;99.90;;;;;;5090047;28;20067;-61
2022/01/24 09:14:25;;;;;;;74.53;38.65;;;4.50;99.90;;;;;;5090534;28;20120;-61
2022/01/24 09:16:51;;;;;;;75.97;40.15;;;4.50;99.90;;;;;;5072154;28;20142;-45
2022/01/24 09:19:17;;;;;;;79.32;39.72;;;4.60;99.90;;;;;;5089609;28;20694;-46
2022/01/24 09:21:42;;;;;;;74.03;41.53;;;4.60;99.90;;;;;;5090167;28;20048;-46
2022/01/24 09:24:08;;;;;;;77.72;41.22;;;4.60;99.90;;;;;;5089009;28;20047;-46
2022/01/24 09:26:34;;;;;;;75.70;40.60;;;4.30;99.90;;;;;;5090056;28;20101;-45
2022/01/24 09:29:00;;;;;;;79.80;41.42;;;4.60;99.90;;;;;;5089302;28;20123;-48
2022/01/24 09:31:25;;;;;;;82.72;42.40;;;4.60;99.90;;;;;;5071232;28;20047;-47
2022/01/24 09:33:53;;;;;;;86.97;43.55;;;4.60;99.90;;;;;;5089820;28;20032;-44
2022/01/24 09:36:19;;;;;;;80.32;43.28;;;4.70;99.90;;;;;;5089787;28;20063;-48
2022/01/24 09:38:44;;;;;;;74.82;41.80;;;4.70;99.90;;;;;;5089983;28;20048;-45
2022/01/24 09:41:13;;;;;;;74.15;40.42;;;4.80;99.90;;;;;;5089979;28;20036;-44
2022/01/24 09:43:39;;;;;;;75.90;41.15;;;5.50;99.90;;;;;;5089532;28;20044;-44
2022/01/24 09:46:05;;;;;;;61.38;34.65;;;4.80;99.90;;;;;;5089071;28;20048;-55
2022/01/24 09:48:31;;;;;;;71.28;37.75;;;4.50;99.90;;;;;;5078253;28;20415;-40
2022/01/24 09:50:57;;;;;;;71.18;39.25;;;4.80;99.90;;;;;;5087515;28;20075;-46
2022/01/24 09:53:25;;;;;;;71.03;40.15;;;4.80;99.90;;;;;;5087715;28;20119;-40
2022/01/24 09:55:52;;;;;;;76.10;42.47;;;5.80;99.90;;;;;;5089325;28;20429;-42
2022/01/24 09:58:19;;;;;;;80.88;43.88;;;4.80;99.90;;;;;;5070532;28;20505;-39
2022/01/24 10:00:45;;;;;;;91.30;45.47;;;4.80;99.90;;;;;;5089347;28;20097;-42
2022/01/24 10:03:14;;;;;;;85.10;45.67;;;5.60;99.90;;;;;;5088893;28;20127;-46
2022/01/24 10:05:42;;;;;;;85.35;46.38;;;4.80;99.90;;;;;;5088914;28;20126;-40
2022/01/24 10:08:14;;;;;;;86.38;46.55;;;4.80;99.90;;;;;;5088739;28;20048;-44
2022/01/24 10:10:47;;;;;;;83.97;46.13;;;5.20;99.90;;;;;;5089121;28;20543;-45
2022/01/24 10:16:29;;;;;;;82.43;45.50;;;6.10;99.90;;;;;;5089506;28;20051;-48
2022/01/24 10:19:08;;;;;;;85.53;45.42;;;4.90;99.90;;;;;;5089341;28;20475;-45
2022/01/24 10:21:43;;;;;;;89.35;46.47;;;4.90;99.90;;;;;;5089370;28;20040;-45
2022/01/24 10:24:12;;;;;;;86.93;45.72;;;4.90;99.90;;;;;;5089392;28;20109;-45
2022/01/24 10:26:38;;;;;;;88.72;48.28;;;4.90;99.90;;;;;;5089256;28;20123;-41
2022/01/24 10:29:13;;;;;;;79.53;44.42;;;5.90;99.90;;;;;;5088862;28;20040;-43
2022/01/24 10:31:47;;;;;;;83.38;44.92;;;5.00;99.90;;;;;;5089188;28;20051;-44
2022/01/24 10:34:28;;;;;;;88.18;47.22;;;5.00;99.90;;;;;;5088648;28;20123;-43
2022/01/24 10:36:56;;;;;;;86.05;48.70;;;5.00;99.90;;;;;;5091894;28;20044;-43
2022/01/24 10:39:34;;;;;;;83.30;44.67;;;5.00;99.90;;;;;;5092455;28;20035;-43
2022/01/24 10:44:49;;;;;;;85.65;47.40;;;5.10;99.90;;;;;;5092760;28;20048;-41
2022/01/24 10:47:15;;;;;;;82.00;45.42;;;5.00;99.90;;;;;;5088958;28;20116;-44
2022/01/24 10:49:41;;;;;;;91.70;48.25;;;5.10;99.90;;;;;;5109021;28;20047;-46
2022/01/24 10:52:21;;;;;;;86.88;47.50;;;5.00;99.90;;;;;;5108781;28;20040;-45
2022/01/24 10:54:49;;;;;;;81.88;46.05;;;5.10;99.90;;;;;;5109621;28;20088;-42
2022/01/24 10:57:26;;;;;;;83.90;47.90;;;6.10;99.90;;;;;;5109165;28;20129;-43
2022/01/24 11:00:11;;;;;;;86.85;47.35;;;5.10;99.90;;;;;;5110064;28;20047;-45
2022/01/24 11:02:42;;;;;;;90.95;48.15;;;5.10;99.90;;;;;;5109216;28;20043;-45
2022/01/24 11:05:23;;;;;;;86.78;48.63;;;5.70;99.90;;;;;;5109186;28;20705;-45
2022/01/24 11:07:56;;;;;;;96.13;48.63;;;5.10;99.90;;;;;;5110280;28;20066;-54
2022/01/24 11:10:23;;;;;;;94.38;47.67;;;5.20;99.90;;;;;;5109624;28;20078;-47
2022/01/24 11:12:49;;;;;;;88.22;47.17;;;5.20;99.90;;;;;;5109380;28;20085;-47
2022/01/24 11:15:15;;;;;;;87.47;46.47;;;5.20;99.90;;;;;;5108558;28;20479;-50
2022/01/24 11:17:43;;;;;;;83.72;47.33;;;5.20;99.90;;;;;;5109637;28;20047;-46
2022/01/24 11:20:13;;;;;;;87.75;47.42;;;6.00;99.90;;;;;;5109754;28;20040;-48
2022/01/24 11:22:44;;;;;;;79.68;44.97;;;5.20;99.90;;;;;;5109476;28;20063;-52
2022/01/24 11:25:11;;;;;;;86.88;46.67;;;5.30;99.90;;;;;;5109398;28;20109;-54
2022/01/24 11:27:43;;;;;;;77.80;43.45;;;5.30;99.90;;;;;;5108954;28;20528;-44
2022/01/24 11:30:14;;;;;;;80.07;46.22;;;5.10;99.90;;;;;;5109091;28;20047;-50
2022/01/24 11:33:16;;;;;;;79.03;43.15;;;5.30;99.90;;;;;;5110712;28;20082;-46
2022/01/24 11:35:54;;;;;;;79.25;45.88;;;5.30;99.90;;;;;;5112073;28;20116;-49
2022/01/24 11:38:39;;;;;;;85.35;48.80;;;5.80;99.90;;;;;;5111342;28;20036;-56
2022/01/24 11:41:34;;;;;;;81.80;45.55;;;5.30;99.90;;;;;;5111634;28;20035;-56
2022/01/24 11:44:12;;;;;;;84.13;46.75;;;5.20;99.90;;;;;;5111754;28;20114;-51
2022/01/24 11:46:47;;;;;;;89.72;49.05;;;5.30;99.90;;;;;;5111917;28;20039;-47
2022/01/24 11:49:18;;;;;;;91.28;49.30;;;5.10;99.90;;;;;;5110869;28;20048;-45
2022/01/24 11:51:47;;;;;;;87.70;47.42;;;5.30;99.90;;;;;;5111261;28;20560;-44
2022/01/24 11:57:33;;;;;;;85.57;47.88;;;5.30;99.90;;;;;;5079097;28;20047;-46
2022/01/24 12:00:05;;;;;;;92.30;48.28;;;5.30;99.90;;;;;;5113330;28;20044;-52
2022/01/24 12:02:52;;;;;;;92.05;48.88;;;5.30;99.90;;;;;;5111789;28;20043;-48
2022/01/24 12:05:23;;;;;;;92.82;50.03;;;5.30;99.90;;;;;;5113742;28;20126;-57
2022/01/24 12:08:02;;;;;;;94.28;51.65;;;5.30;99.90;;;;;;5115076;28;20031;-47
2022/01/24 12:10:38;;;;;;;82.32;45.72;;;5.30;99.90;;;;;;5094567;28;20040;-55
2022/01/24 12:13:05;;;;;;;90.18;48.40;;;5.20;99.90;;;;;;5113233;28;20165;-49
2022/01/24 12:15:37;;;;;;;90.05;49.08;;;5.30;99.90;;;;;;5113259;28;20039;-47
2022/01/24 12:18:12;;;;;;;91.78;49.45;;;5.20;99.90;;;;;;5114312;28;20050;-47
2022/01/24 12:20:40;;;;;;;87.43;50.42;;;5.30;99.90;;;;;;5113456;28;20052;-50
2022/01/24 12:23:25;;;;;;;91.95;51.65;;;5.80;99.90;;;;;;5112347;28;20067;-45
2022/01/24 12:25:57;;;;;;;92.78;50.72;;;5.10;99.90;;;;;;5112306;28;20103;-47
2022/01/24 12:28:42;;;;;;;86.03;48.42;;;5.20;99.90;;;;;;5113147;28;20048;-45
2022/01/24 12:31:21;;;;;;;92.82;48.17;;;5.20;99.90;;;;;;5113828;28;20122;-48
2022/01/24 12:33:53;;;;;;;85.35;47.65;;;5.00;99.90;;;;;;5112960;28;20054;-48
2022/01/24 12:36:48;;;;;;;88.13;48.27;;;5.20;99.90;;;;;;5093768;28;20039;-49
2022/01/24 12:39:37;;;;;;;80.65;45.08;;;5.10;99.90;;;;;;5114102;28;20270;-47
2022/01/24 12:42:11;;;;;;;81.13;44.10;;;5.10;99.90;;;;;;5113162;28;20080;-47
2022/01/24 12:47:15;;;;;;;86.88;48.35;;;5.10;99.90;;;;;;5113623;28;20052;-45
2022/01/24 12:49:43;;;;;;;88.68;48.63;;;5.10;99.90;;;;;;5111646;28;20046;-46
2022/01/24 12:52:15;;;;;;;83.05;47.45;;;5.90;99.90;;;;;;5093601;28;20082;-49
2022/01/24 12:54:44;;;;;;;82.60;47.13;;;5.50;99.90;;;;;;5110717;28;20035;-43
2022/01/24 12:57:14;;;;;;;78.22;44.50;;;6.20;99.90;;;;;;5110174;28;20118;-46
2022/01/24 12:59:55;;;;;;;73.28;42.80;;;5.10;99.90;;;;;;5109756;28;20035;-44
2022/01/24 13:02:40;;;;;;;83.20;48.53;;;5.80;99.90;;;;;;5111030;28;20123;-45
2022/01/24 13:05:08;;;;;;;88.28;46.08;;;5.10;99.90;;;;;;5110067;28;20056;-46
2022/01/24 13:07:36;;;;;;;89.13;48.80;;;5.10;99.90;;;;;;5110093;28;20054;-46
2022/01/24 13:10:10;;;;;;;81.93;46.67;;;4.80;99.90;;;;;;5110613;28;20086;-51
2022/01/24 13:12:37;;;;;;;77.30;44.78;;;5.10;99.90;;;;;;5110643;28;20036;-46
2022/01/24 13:15:06;;;;;;;78.45;44.80;;;6.30;99.90;;;;;;5110772;28;20088;-45
2022/01/24 13:23:08;;;;;;;81.28;45.90;;;5.80;99.90;;;;;;5109927;28;20091;-44
2022/01/24 13:25:37;;;;;;;85.38;48.15;;;5.00;99.90;;;;;;5111238;28;20062;-45
2022/01/24 13:28:13;;;;;;;81.78;46.22;;;5.40;99.90;;;;;;5110271;28;20096;-45
2022/01/24 13:30:45;;;;;;;80.22;43.35;;;5.60;99.90;;;;;;5111277;28;20043;-56
2022/01/24 13:33:14;;;;;;;;;;;4.90;99.90;;;;;;5111943;28;20043;-57
2022/01/24 13:35:44;;;;;;;78.43;43.03;;;6.00;99.90;;;;;;5111011;28;20456;-57
2022/01/24 13:38:14;;;;;;;71.57;41.92;;;4.70;99.90;;;;;;5111076;28;20050;-56
2022/01/24 13:40:41;;;;;;;75.45;42.47;;;4.90;99.90;;;;;;5111998;28;20043;-48
2022/01/24 13:43:10;;;;;;;73.45;42.67;;;4.80;99.90;;;;;;5110912;28;20048;-46
2022/01/24 13:45:38;;;;;;;76.32;44.15;;;4.60;99.90;;;;;;5109597;28;20039;-46
2022/01/24 13:48:06;;;;;;;77.10;44.70;;;6.10;99.90;;;;;;5110109;28;20054;-48
2022/01/24 13:50:32;;;;;;;78.18;45.63;;;4.80;99.90;;;;;;5109422;28;20088;-48
2022/01/24 13:52:58;;;;;;;85.72;47.55;;;4.80;99.90;;;;;;5109955;28;20040;-43
2022/01/24 13:55:24;;;;;;;83.47;45.45;;;4.80;99.90;;;;;;5110893;28;20114;-48
2022/01/24 13:57:54;;;;;;;83.68;46.85;;;4.80;99.90;;;;;;5109260;28;20044;-54
2022/01/24 14:00:26;;;;;;;77.50;45.70;;;4.80;99.90;;;;;;5110627;28;20043;-58
2022/01/24 14:03:24;;;;;;;;;;;4.70;99.90;;;;;;5111371;28;20043;-57
2022/01/24 14:06:11;;;;;;;85.68;44.90;;;4.70;99.90;;;;;;5064471;28;19920;-54
2022/01/24 14:08:38;;;;;;;83.03;47.42;;;5.60;99.90;;;;;;5110329;28;20039;-56
2022/01/24 14:11:15;;;;;;;74.60;43.42;;;4.70;99.90;;;;;;5111889;28;20043;-46
2022/01/24 14:13:49;;;;;;;77.28;43.22;;;4.70;99.90;;;;;;5113481;28;20112;-46
2022/01/24 14:16:57;;;;;;;73.68;42.75;;;4.70;99.90;;;;;;5113770;28;20039;-50
2022/01/24 14:19:16;;;;;;;74.28;43.20;;;4.70;99.90;;;;;;5112162;28;20070;-48
2022/01/24 14:21:59;;;;;;;80.63;44.38;;;4.70;99.90;;;;;;5095292;28;20050;-50
2022/01/24 14:24:45;;;;;;;76.20;43.03;;;4.70;99.90;;;;;;5113383;28;20066;-47
2022/01/24 14:27:12;;;;;;;78.05;44.60;;;4.70;99.90;;;;;;5112973;28;20055;-44
2022/01/24 14:29:39;;;;;;;78.80;46.15;;;4.60;99.90;;;;;;5095382;28;20047;-47
2022/01/24 14:32:11;;;;;;;84.30;45.00;;;4.50;99.90;;;;;;5113323;28;20786;-47
2022/01/24 14:34:38;;;;;;;72.40;42.33;;;4.60;99.90;;;;;;5112879;28;20505;-51
2022/01/24 14:37:05;;;;;;;78.72;43.90;;;4.30;99.90;;;;;;5113528;28;20044;-46
2022/01/24 14:39:42;;;;;;;83.53;45.20;;;4.60;99.90;;;;;;5113821;28;20054;-47
2022/01/24 14:42:11;;;;;;;78.35;43.95;;;4.60;99.90;;;;;;5113416;28;20043;-45
2022/01/24 14:44:55;;;;;;;78.38;44.28;;;4.50;99.90;;;;;;5094360;28;20450;-47
2022/01/24 14:47:24;;;;;;;79.18;44.75;;;4.50;99.90;;;;;;5112799;28;20130;-55
2022/01/24 14:49:50;;;;;;;79.47;44.13;;;4.50;99.90;;;;;;5112853;28;20176;-52
2022/01/24 14:52:19;;;;;;;78.50;43.67;;;5.10;99.90;;;;;;5113401;28;20039;-57
2022/01/24 14:54:45;;;;;;;72.97;44.03;;;4.40;99.90;;;;;;5113365;28;20087;-55